Aarle-Rixtel, Netherlands
Current Conditions -  °F | °C
As of 3:38 PM on Thursday 30 Oct 2014 (Local Time) from EHVK Reporting Station
Haze Haze  
Wind Chill: 61°   Ceiling: Unl
Heat Index: 61°   Visibility: 3mi
Dew Point: 57°   Wind: 6mph
Humidity: 88%   Direction: 150°SSE
Pressure: 30.15"   Gusts: NA
Location:  51.51°N, 5.64°E
Report Text: EHVK 301438Z AUTO 15005KT 5000 BR BKN140 16/14 Q1021 WHT 17006KT 5000 BR NSC
Loading
Personal Weather Stations






























Interactive Weather Map
Tropical Storm Tracking
New forecast layout! Learn more

10-Day Weather Forecast

Advertisements
Track Severe Weather on mobile